Time;durP1;ratioP1;P1;durP2;ratioP2;P2;SDS_P1;SDS_P2;PMS_P1;PMS_P2;Temp;Humidity;BMP_temperature;BMP_pressure;BME280_temperature;BME280_humidity;BME280_pressure;Samples;Min_cycle;Max_cycle;Signal;HPM_P1;HPM_P2
2021/03/04 00:00:30;;;;;;;0.00;0.00;;;7.70;99.90;;;;;;6274452;22;20851;-73
2021/03/04 00:02:57;;;;;;;0.00;0.00;;;7.70;99.90;;;;;;6274403;22;20383;-74
2021/03/04 00:05:23;;;;;;;0.00;0.00;;;7.70;99.90;;;;;;6274439;22;20380;-74
2021/03/04 00:07:49;;;;;;;0.00;0.00;;;7.70;99.90;;;;;;6274428;22;20368;-74
2021/03/04 00:10:18;;;;;;;0.00;0.00;;;7.70;99.90;;;;;;6274434;22;20380;-74
2021/03/04 00:12:44;;;;;;;0.00;0.00;;;7.70;99.90;;;;;;6274336;22;20861;-74
2021/03/04 00:15:13;;;;;;;0.00;0.00;;;7.60;99.90;;;;;;6274080;22;20692;-75
2021/03/04 00:17:39;;;;;;;0.00;0.00;;;7.60;99.90;;;;;;6274348;22;20380;-73
2021/03/04 00:20:07;;;;;;;0.00;0.00;;;7.50;99.90;;;;;;6274056;22;20715;-73
2021/03/04 00:22:33;;;;;;;0.00;0.00;;;7.40;99.90;;;;;;6274562;22;20371;-74
2021/03/04 00:24:59;;;;;;;0.00;0.00;;;7.20;99.90;;;;;;6274173;22;20395;-75
2021/03/04 00:27:26;;;;;;;0.00;0.00;;;7.20;99.90;;;;;;6274534;22;20372;-73
2021/03/04 00:29:52;;;;;;;0.00;0.00;;;7.00;99.90;;;;;;6274751;22;20427;-73
2021/03/04 00:32:18;;;;;;;0.00;0.00;;;7.00;99.90;;;;;;6274488;22;20372;-74
2021/03/04 00:34:44;;;;;;;0.00;0.00;;;7.00;99.90;;;;;;6274104;22;20388;-74
2021/03/04 00:37:11;;;;;;;0.00;0.00;;;7.00;99.90;;;;;;6274272;22;20379;-74
2021/03/04 00:39:37;;;;;;;0.00;0.00;;;7.00;99.90;;;;;;6274227;22;20850;-73
2021/03/04 00:42:04;;;;;;;0.00;0.00;;;7.10;99.90;;;;;;6274668;22;20380;-74
2021/03/04 00:44:31;;;;;;;0.00;0.00;;;7.20;99.90;;;;;;6274070;22;20372;-73
2021/03/04 00:46:57;;;;;;;0.00;0.00;;;7.20;99.90;;;;;;6274378;22;20432;-74
2021/03/04 00:49:23;;;;;;;0.00;0.00;;;7.30;99.90;;;;;;6273953;22;20372;-74
2021/03/04 00:51:49;;;;;;;0.00;0.00;;;7.30;99.90;;;;;;6274518;22;20393;-74
2021/03/04 00:54:16;;;;;;;0.00;0.00;;;7.30;99.90;;;;;;6274124;22;20413;-74
2021/03/04 00:56:42;;;;;;;0.00;0.00;;;7.30;99.90;;;;;;6274304;22;20377;-74
2021/03/04 00:59:08;;;;;;;0.00;0.00;;;7.20;99.90;;;;;;6274454;22;20380;-74
2021/03/04 01:01:35;;;;;;;0.00;0.00;;;7.30;99.90;;;;;;6274313;22;20372;-73
2021/03/04 01:04:01;;;;;;;0.00;0.00;;;7.20;99.90;;;;;;6274343;22;20375;-74
2021/03/04 01:06:27;;;;;;;0.00;0.00;;;7.20;99.90;;;;;;6273896;22;20372;-74
2021/03/04 01:08:53;;;;;;;0.00;0.00;;;7.30;99.90;;;;;;6274353;22;20372;-75
2021/03/04 01:11:20;;;;;;;0.00;0.00;;;7.30;99.90;;;;;;6273968;22;20372;-74
2021/03/04 01:13:46;;;;;;;0.00;0.00;;;7.50;99.90;;;;;;6274301;22;20434;-74
2021/03/04 01:16:12;;;;;;;0.00;0.00;;;7.60;99.90;;;;;;6275197;22;20372;-73
2021/03/04 01:18:39;;;;;;;0.00;0.00;;;7.50;99.90;;;;;;6275929;22;20380;-73
2021/03/04 01:21:06;;;;;;;0.00;0.00;;;7.50;99.90;;;;;;6290677;22;20372;-72
2021/03/04 01:23:32;;;;;;;0.00;0.00;;;7.50;99.90;;;;;;6296089;22;20510;-74
2021/03/04 01:25:59;;;;;;;0.00;0.00;;;7.40;99.90;;;;;;6281887;22;20372;-73
2021/03/04 01:28:25;;;;;;;0.00;0.00;;;7.30;99.90;;;;;;6285194;22;20376;-72
2021/03/04 01:30:52;;;;;;;0.00;0.00;;;7.40;99.90;;;;;;6297234;22;20395;-72
2021/03/04 01:33:19;;;;;;;0.00;0.00;;;7.50;99.90;;;;;;6294982;22;20379;-73
2021/03/04 01:35:46;;;;;;;0.00;0.00;;;7.50;99.90;;;;;;6280153;22;20372;-73
2021/03/04 01:38:13;;;;;;;0.00;0.00;;;7.60;99.90;;;;;;6274459;22;20738;-73
2021/03/04 01:40:39;;;;;;;0.00;0.00;;;7.60;99.90;;;;;;6274019;22;20400;-74
2021/03/04 01:43:05;;;;;;;0.00;0.00;;;7.60;99.90;;;;;;6274192;22;20380;-74
2021/03/04 01:45:31;;;;;;;0.00;0.00;;;7.70;99.90;;;;;;6273494;22;20874;-72
2021/03/04 01:47:58;;;;;;;0.00;0.00;;;7.60;99.90;;;;;;6274335;22;20372;-73
2021/03/04 01:50:26;;;;;;;0.00;0.00;;;7.60;99.90;;;;;;6273969;22;20862;-73
2021/03/04 01:52:54;;;;;;;0.00;0.00;;;7.60;99.90;;;;;;6273473;22;20379;-73
2021/03/04 01:55:20;;;;;;;0.00;0.00;;;7.60;99.90;;;;;;6273339;22;20396;-73
2021/03/04 01:57:48;;;;;;;0.00;0.00;;;7.70;99.90;;;;;;6273273;22;20376;-74
2021/03/04 02:00:16;;;;;;;0.00;0.00;;;7.70;99.90;;;;;;6274001;22;20373;-73
2021/03/04 02:02:43;;;;;;;0.00;0.00;;;7.70;99.90;;;;;;6273940;22;20399;-73
2021/03/04 02:05:11;;;;;;;0.00;0.00;;;7.70;99.90;;;;;;6273479;22;20371;-74
2021/03/04 02:07:44;;;;;;;0.00;0.00;;;7.60;99.90;;;;;;6273348;22;20376;-74
2021/03/04 02:10:17;;;;;;;0.00;0.00;;;7.40;99.90;;;;;;6273735;22;20372;-74
2021/03/04 02:12:52;;;;;;;0.00;0.00;;;7.00;99.90;;;;;;6273986;22;20381;-75
2021/03/04 02:15:24;;;;;;;0.00;0.00;;;7.00;99.90;;;;;;6273167;22;20431;-74
2021/03/04 02:17:52;;;;;;;0.00;0.00;;;7.00;99.90;;;;;;6273935;22;20379;-73
2021/03/04 02:20:32;;;;;;;0.00;0.00;;;7.00;99.90;;;;;;6274050;22;20679;-75
2021/03/04 02:23:33;;;;;;;0.00;0.00;;;6.90;99.90;;;;;;6273793;22;20385;-74
2021/03/04 02:26:12;;;;;;;0.00;0.00;;;7.10;99.90;;;;;;6223832;22;20368;-74
2021/03/04 02:28:39;;;;;;;0.00;0.00;;;7.20;99.90;;;;;;6273619;22;20427;-74
2021/03/04 02:31:09;;;;;;;0.00;0.00;;;7.10;99.90;;;;;;6273783;22;20394;-74
2021/03/04 02:33:36;;;;;;;0.00;0.00;;;7.20;99.90;;;;;;6273087;22;20406;-75
2021/03/04 02:36:04;;;;;;;0.00;0.00;;;7.20;99.90;;;;;;6273485;22;20418;-74
2021/03/04 02:38:31;;;;;;;0.00;0.00;;;7.40;99.90;;;;;;6273356;22;20383;-75
2021/03/04 02:40:59;;;;;;;0.00;0.00;;;7.40;99.90;;;;;;6274441;22;20749;-74
2021/03/04 02:43:27;;;;;;;0.00;0.00;;;7.40;99.90;;;;;;6275545;22;20418;-75
2021/03/04 02:45:55;;;;;;;0.00;0.00;;;7.50;99.90;;;;;;6275094;22;20413;-74
2021/03/04 02:48:22;;;;;;;0.00;0.00;;;7.40;99.90;;;;;;6275437;22;20368;-74
2021/03/04 02:50:51;;;;;;;0.00;0.00;;;7.40;99.90;;;;;;6274997;22;20419;-75
2021/03/04 02:53:18;;;;;;;0.00;0.00;;;7.10;99.90;;;;;;6275076;22;20395;-74
2021/03/04 02:55:45;;;;;;;0.00;0.00;;;7.10;99.90;;;;;;6274935;22;20379;-74
2021/03/04 02:58:13;;;;;;;0.00;0.00;;;7.20;99.90;;;;;;6275160;22;20871;-74
2021/03/04 03:00:40;;;;;;;0.00;0.00;;;7.10;99.90;;;;;;6275284;22;20438;-74
2021/03/04 03:03:11;;;;;;;0.00;0.00;;;7.00;99.90;;;;;;6275339;22;20376;-75
2021/03/04 03:05:40;;;;;;;0.00;0.00;;;7.10;99.90;;;;;;6275426;22;20722;-75
2021/03/04 03:08:07;;;;;;;0.00;0.00;;;7.10;99.90;;;;;;6274704;22;20384;-75
2021/03/04 03:10:34;;;;;;;0.00;0.00;;;7.00;99.90;;;;;;6274681;22;20394;-74
2021/03/04 03:13:01;;;;;;;0.00;0.00;;;7.10;99.90;;;;;;6275222;22;20438;-74
2021/03/04 03:15:27;;;;;;;0.00;0.00;;;7.10;99.90;;;;;;6275065;22;20696;-74
2021/03/04 03:17:54;;;;;;;0.00;0.00;;;7.10;99.90;;;;;;6275092;22;20374;-74
2021/03/04 03:20:23;;;;;;;0.00;0.00;;;7.10;99.90;;;;;;6274828;22;20380;-74
2021/03/04 03:22:51;;;;;;;0.00;0.00;;;7.20;99.90;;;;;;6274613;22;20376;-75
2021/03/04 03:25:17;;;;;;;0.00;0.00;;;7.20;99.90;;;;;;6274553;22;20379;-75
2021/03/04 03:27:45;;;;;;;0.00;0.00;;;7.20;99.90;;;;;;6276093;22;20372;-74
2021/03/04 03:30:13;;;;;;;0.00;0.00;;;7.10;99.90;;;;;;6274691;22;20383;-74
2021/03/04 03:32:45;;;;;;;0.00;0.00;;;7.00;99.90;;;;;;6275634;22;20381;-74
2021/03/04 03:35:12;;;;;;;0.00;0.00;;;6.90;99.90;;;;;;6274706;22;20388;-74
2021/03/04 03:37:39;;;;;;;0.00;0.00;;;6.80;99.90;;;;;;6274827;22;20859;-74
2021/03/04 03:40:07;;;;;;;0.00;0.00;;;6.80;99.90;;;;;;6275009;22;20376;-74
2021/03/04 03:42:35;;;;;;;0.00;0.00;;;6.70;99.90;;;;;;6274500;22;20392;-74
2021/03/04 03:45:03;;;;;;;0.00;0.00;;;6.70;99.90;;;;;;6274775;22;20376;-74
2021/03/04 03:47:33;;;;;;;0.00;0.00;;;6.70;99.90;;;;;;6274731;22;20380;-74
2021/03/04 03:50:00;;;;;;;0.00;0.00;;;6.70;99.90;;;;;;6274705;22;20827;-74
2021/03/04 03:52:27;;;;;;;0.00;0.00;;;6.70;99.90;;;;;;6274616;22;20456;-73
2021/03/04 03:54:55;;;;;;;0.00;0.00;;;6.70;99.90;;;;;;6274184;22;20438;-74
2021/03/04 03:57:21;;;;;;;0.00;0.00;;;6.80;99.90;;;;;;6275098;22;20439;-73
2021/03/04 03:59:48;;;;;;;0.00;0.00;;;6.70;99.90;;;;;;6274931;22;20413;-74
2021/03/04 04:02:14;;;;;;;0.00;0.00;;;6.50;99.90;;;;;;6274897;22;20430;-74
2021/03/04 04:04:41;;;;;;;0.00;0.00;;;6.50;99.90;;;;;;6274670;22;20443;-73
2021/03/04 04:07:08;;;;;;;0.00;0.00;;;6.30;99.90;;;;;;6274954;22;20373;-75
2021/03/04 04:09:35;;;;;;;0.00;0.00;;;6.40;99.90;;;;;;6274668;22;20372;-75
2021/03/04 04:12:04;;;;;;;0.00;0.00;;;6.10;99.90;;;;;;6274634;22;20372;-74
2021/03/04 04:14:30;;;;;;;0.00;0.00;;;6.10;99.90;;;;;;6274816;22;20387;-74
2021/03/04 04:16:57;;;;;;;0.00;0.00;;;6.10;99.90;;;;;;6274056;22;20392;-74
2021/03/04 04:19:23;;;;;;;0.00;0.00;;;6.20;99.90;;;;;;6274279;22;20847;-73
2021/03/04 04:21:50;;;;;;;0.00;0.00;;;6.20;99.90;;;;;;6273998;22;20381;-74
2021/03/04 04:24:17;;;;;;;0.00;0.00;;;6.20;99.90;;;;;;6274430;22;20458;-74
2021/03/04 04:26:43;;;;;;;0.00;0.00;;;6.20;99.90;;;;;;6274500;22;20387;-75
2021/03/04 04:29:10;;;;;;;0.00;0.00;;;5.90;99.90;;;;;;6274163;22;20372;-75
2021/03/04 04:31:36;;;;;;;0.00;0.00;;;5.80;99.90;;;;;;6274485;22;20438;-75
2021/03/04 04:34:02;;;;;;;0.00;0.00;;;5.80;99.90;;;;;;6275989;22;20380;-74
2021/03/04 04:36:29;;;;;;;0.00;0.00;;;5.80;99.90;;;;;;6275674;22;20711;-74
2021/03/04 04:38:57;;;;;;;0.00;0.00;;;5.90;99.90;;;;;;6274135;22;20438;-75
2021/03/04 04:41:23;;;;;;;0.00;0.00;;;5.90;99.90;;;;;;6274117;22;20364;-75
2021/03/04 04:43:49;;;;;;;0.00;0.00;;;5.80;99.90;;;;;;6274791;22;20372;-74
2021/03/04 04:46:17;;;;;;;0.00;0.00;;;5.50;99.90;;;;;;6273770;22;20441;-74
2021/03/04 04:48:43;;;;;;;0.00;0.00;;;5.40;99.90;;;;;;6274509;22;20376;-74
2021/03/04 04:51:10;;;;;;;0.00;0.00;;;5.30;1.00;;;;;;6273762;22;20854;-73
2021/03/04 04:53:36;;;;;;;0.00;0.00;;;5.40;1.00;;;;;;6274398;22;20416;-73
2021/03/04 04:56:02;;;;;;;0.00;0.00;;;5.50;1.00;;;;;;6274069;22;20711;-73
2021/03/04 04:58:28;;;;;;;0.00;0.00;;;5.60;1.00;;;;;;6274137;22;20379;-74
2021/03/04 05:00:54;;;;;;;0.00;0.00;;;5.60;1.00;;;;;;6270856;22;20384;-72
2021/03/04 05:03:21;;;;;;;0.00;0.00;;;5.60;1.00;;;;;;6273662;22;20430;-74
2021/03/04 05:05:47;;;;;;;0.00;0.00;;;5.60;1.00;;;;;;6273812;22;20458;-74
2021/03/04 05:08:14;;;;;;;0.00;0.00;;;5.30;1.00;;;;;;6274123;22;20370;-74
2021/03/04 05:10:40;;;;;;;0.00;0.00;;;5.20;1.00;;;;;;6274057;22;20369;-74
2021/03/04 05:13:06;;;;;;;0.00;0.00;;;5.20;1.00;;;;;;6273999;22;20457;-74
2021/03/04 05:15:32;;;;;;;0.00;0.00;;;5.30;1.00;;;;;;6272668;22;20922;-73
2021/03/04 05:17:58;;;;;;;0.00;0.00;;;5.30;1.00;;;;;;6273444;22;20680;-73
2021/03/04 05:20:25;;;;;;;0.00;0.00;;;5.50;1.00;;;;;;6273515;22;20383;-71
2021/03/04 05:22:51;;;;;;;0.00;0.00;;;5.50;1.00;;;;;;6273811;22;20854;-73
2021/03/04 05:25:18;;;;;;;0.00;0.00;;;5.50;1.00;;;;;;6281650;22;20463;-72
2021/03/04 05:27:44;;;;;;;0.00;0.00;;;5.60;1.00;;;;;;6297288;22;20372;-71
2021/03/04 05:30:11;;;;;;;0.00;0.00;;;5.70;1.00;;;;;;6283355;22;20374;-70
2021/03/04 05:32:37;;;;;;;0.00;0.00;;;5.70;1.00;;;;;;6274476;22;20367;-70
2021/03/04 05:35:05;;;;;;;0.00;0.00;;;5.70;1.00;;;;;;6279795;22;20388;-71
2021/03/04 05:37:32;;;;;;;0.00;0.00;;;5.70;1.00;;;;;;6280960;22;20373;-70
2021/03/04 05:39:58;;;;;;;0.00;0.00;;;5.70;1.00;;;;;;6281229;22;20375;-71
2021/03/04 05:42:24;;;;;;;0.00;0.00;;;5.60;1.00;;;;;;6274602;22;20376;-70
2021/03/04 05:44:51;;;;;;;0.00;0.00;;;5.60;1.00;;;;;;6273762;22;20372;-69
2021/03/04 05:47:19;;;;;;;0.00;0.00;;;5.60;1.00;;;;;;6274895;22;20743;-71
2021/03/04 05:49:48;;;;;;;0.00;0.00;;;5.60;1.00;;;;;;6273606;22;20712;-71
2021/03/04 05:52:17;;;;;;;0.00;0.00;;;5.60;1.00;;;;;;6274154;22;20377;-71
2021/03/04 05:54:47;;;;;;;0.00;0.00;;;5.60;1.00;;;;;;6273348;22;20761;-70
2021/03/04 05:57:14;;;;;;;0.00;0.00;;;5.60;1.00;;;;;;6273412;22;20376;-70
2021/03/04 05:59:41;;;;;;;0.00;0.00;;;5.40;1.00;;;;;;6273548;22;20453;-70
2021/03/04 06:02:08;;;;;;;0.00;0.00;;;5.40;1.00;;;;;;6273500;22;20838;-70
2021/03/04 06:04:35;;;;;;;0.00;0.00;;;5.30;1.00;;;;;;6273297;22;20368;-71
2021/03/04 06:07:01;;;;;;;0.00;0.00;;;5.20;1.00;;;;;;6272898;22;20885;-71
2021/03/04 06:09:28;;;;;;;0.00;0.00;;;5.20;1.00;;;;;;6273510;22;20372;-67
2021/03/04 06:12:01;;;;;;;0.00;0.00;;;5.20;1.00;;;;;;6273180;22;20379;-68
2021/03/04 06:14:27;;;;;;;0.00;0.00;;;5.00;1.00;;;;;;6269745;22;20377;-68
2021/03/04 06:16:53;;;;;;;0.00;0.00;;;5.00;1.00;;;;;;6274641;22;20972;-68
2021/03/04 06:19:20;;;;;;;0.00;0.00;;;5.00;1.00;;;;;;6274537;22;20476;-69
2021/03/04 06:21:58;;;;;;;0.00;0.00;;;5.10;1.00;;;;;;6275236;22;20372;-72
2021/03/04 06:24:40;;;;;;;0.00;0.00;;;5.20;1.00;;;;;;6274752;22;20392;-77
2021/03/04 06:27:24;;;;;;;0.00;0.00;;;5.00;1.00;;;;;;6274168;22;20391;-75
2021/03/04 06:29:59;;;;;;;0.00;0.00;;;5.20;1.00;;;;;;6274115;22;20424;-74
2021/03/04 06:32:27;;;;;;;0.00;0.00;;;5.30;1.00;;;;;;6274711;22;20878;-75
2021/03/04 06:35:08;;;;;;;0.00;0.00;;;4.20;1.00;;;;;;6274118;22;20874;-75
2021/03/04 06:37:39;;;;;;;0.00;0.00;;;5.30;1.00;;;;;;6273964;22;20499;-76
2021/03/04 06:40:36;;;;;;;0.00;0.00;;;5.40;1.00;;;;;;6274435;22;20393;-77
2021/03/04 06:43:05;;;;;;;0.00;0.00;;;4.00;1.00;;;;;;6273821;22;20376;-76
2021/03/04 06:45:33;;;;;;;0.00;0.00;;;5.60;1.00;;;;;;6274641;22;20705;-71
2021/03/04 06:48:10;;;;;;;0.00;0.00;;;5.00;1.00;;;;;;6274605;22;20672;-69
2021/03/04 06:50:38;;;;;;;0.00;0.00;;;4.80;1.00;;;;;;6274883;22;20397;-68
2021/03/04 06:53:14;;;;;;;0.00;0.00;;;4.90;1.00;;;;;;6274943;22;20379;-66
2021/03/04 06:55:54;;;;;;;0.00;0.00;;;5.00;1.00;;;;;;6273933;22;20467;-67
2021/03/04 06:58:25;;;;;;;0.00;0.00;;;5.10;1.00;;;;;;6274658;22;20384;-66
2021/03/04 07:01:08;;;;;;;0.00;0.00;;;5.10;1.00;;;;;;6273963;22;20423;-67
2021/03/04 07:03:45;;;;;;;0.00;0.00;;;5.30;1.00;;;;;;6274592;22;20411;-72
2021/03/04 07:06:12;;;;;;;0.00;0.00;;;5.10;1.00;;;;;;6273939;22;20372;-72
2021/03/04 07:08:40;;;;;;;0.00;0.00;;;5.10;1.00;;;;;;6274861;22;20402;-72
2021/03/04 07:11:08;;;;;;;0.00;0.00;;;5.00;1.00;;;;;;6274883;22;20454;-71
2021/03/04 07:13:37;;;;;;;0.00;0.00;;;4.80;1.00;;;;;;6274150;22;20383;-71
2021/03/04 07:16:05;;;;;;;0.00;0.00;;;4.90;1.00;;;;;;6274531;22;20379;-71
2021/03/04 07:18:38;;;;;;;0.00;0.00;;;5.00;1.00;;;;;;6274218;22;20373;-72
2021/03/04 07:21:08;;;;;;;0.00;0.00;;;5.10;1.00;;;;;;6274951;22;20399;-71
2021/03/04 07:23:39;;;;;;;0.00;0.00;;;5.20;1.00;;;;;;6278682;22;20383;-70
2021/03/04 07:26:06;;;;;;;0.00;0.00;;;5.30;1.00;;;;;;6278529;22;20381;-69
2021/03/04 07:28:33;;;;;;;0.00;0.00;;;5.00;1.00;;;;;;6275608;22;20379;-72
2021/03/04 07:31:01;;;;;;;0.00;0.00;;;5.10;1.00;;;;;;6275099;22;20376;-72
2021/03/04 07:33:29;;;;;;;0.00;0.00;;;5.20;1.00;;;;;;6279680;22;20379;-71
2021/03/04 07:35:56;;;;;;;0.00;0.00;;;5.20;1.00;;;;;;6282238;22;20392;-70
2021/03/04 07:38:26;;;;;;;0.00;0.00;;;5.30;1.00;;;;;;6280594;22;20376;-72
2021/03/04 07:41:00;;;;;;;0.00;0.00;;;5.30;1.00;;;;;;6277361;22;20372;-70
2021/03/04 07:43:26;;;;;;;0.00;0.00;;;5.20;1.00;;;;;;6275869;22;20376;-68
2021/03/04 07:45:52;;;;;;;0.00;0.00;;;5.20;1.00;;;;;;6274787;22;20375;-68
2021/03/04 07:48:19;;;;;;;0.00;0.00;;;5.30;1.00;;;;;;6275087;22;20690;-67
2021/03/04 07:50:55;;;;;;;0.00;0.00;;;5.40;1.00;;;;;;6274880;22;20597;-68
2021/03/04 07:53:22;;;;;;;0.00;0.00;;;5.50;1.00;;;;;;6274564;22;20457;-68
2021/03/04 07:55:50;;;;;;;0.00;0.00;;;5.60;1.00;;;;;;6273993;22;20384;-69
2021/03/04 07:58:16;;;;;;;0.00;0.00;;;5.60;1.00;;;;;;6274760;22;20878;-68
2021/03/04 08:00:42;;;;;;;0.00;0.00;;;5.40;1.00;;;;;;6274892;22;20438;-68
2021/03/04 08:03:09;;;;;;;0.00;0.00;;;5.30;1.00;;;;;;6274399;22;20416;-68
2021/03/04 08:05:37;;;;;;;0.00;0.00;;;5.30;1.00;;;;;;6274576;22;20375;-71
2021/03/04 08:08:11;;;;;;;0.00;0.00;;;5.30;1.00;;;;;;6276083;22;20422;-71
2021/03/04 08:10:54;;;;;;;0.00;0.00;;;5.40;1.00;;;;;;6276232;22;20849;-73
2021/03/04 08:13:32;;;;;;;0.00;0.00;;;5.50;1.00;;;;;;6271484;22;20376;-73
2021/03/04 08:15:58;;;;;;;0.00;0.00;;;5.60;1.00;;;;;;6274210;22;20387;-75
2021/03/04 08:18:26;;;;;;;0.00;0.00;;;5.60;1.00;;;;;;6274002;22;20402;-75
2021/03/04 08:21:02;;;;;;;0.00;0.00;;;5.40;1.00;;;;;;6274228;22;20363;-68
2021/03/04 08:23:29;;;;;;;0.00;0.00;;;5.30;1.00;;;;;;6273398;22;20444;-68
2021/03/04 08:25:56;;;;;;;0.00;0.00;;;5.20;1.00;;;;;;6273001;22;20693;-69
2021/03/04 08:28:23;;;;;;;0.00;0.00;;;5.20;1.00;;;;;;6273789;22;20859;-67
2021/03/04 08:30:49;;;;;;;0.00;0.00;;;5.40;1.00;;;;;;6273064;22;20908;-69
2021/03/04 08:33:15;;;;;;;0.00;0.00;;;5.40;1.00;;;;;;6273983;22;20376;-69
2021/03/04 08:35:45;;;;;;;0.00;0.00;;;5.50;1.00;;;;;;6273163;22;20388;-67
2021/03/04 08:38:14;;;;;;;0.00;0.00;;;5.50;1.00;;;;;;6273089;22;20451;-67
2021/03/04 08:40:41;;;;;;;0.00;0.00;;;5.60;1.00;;;;;;6273926;22;20380;-67
2021/03/04 08:43:09;;;;;;;0.00;0.00;;;5.30;1.00;;;;;;6272939;22;20376;-67
2021/03/04 08:45:35;;;;;;;0.00;0.00;;;5.20;1.00;;;;;;6273394;22;20375;-67
2021/03/04 08:48:04;;;;;;;0.00;0.00;;;5.30;1.00;;;;;;6273495;22;20424;-68
2021/03/04 08:50:36;;;;;;;0.00;0.00;;;5.40;1.00;;;;;;6273928;22;20680;-67
2021/03/04 08:53:07;;;;;;;0.00;0.00;;;5.40;1.00;;;;;;6273508;22;20384;-67
2021/03/04 08:55:42;;;;;;;0.00;0.00;;;5.30;1.00;;;;;;6272978;22;20388;-70
2021/03/04 08:58:09;;;;;;;0.00;0.00;;;5.20;1.00;;;;;;6273719;22;20375;-68
2021/03/04 09:00:35;;;;;;;0.00;0.00;;;5.10;1.00;;;;;;6273422;22;20364;-71
2021/03/04 09:03:08;;;;;;;0.00;0.00;;;5.00;1.00;;;;;;6273771;22;20368;-71
2021/03/04 09:05:34;;;;;;;0.00;0.00;;;5.00;1.00;;;;;;6273138;22;20429;-71
2021/03/04 09:08:06;;;;;;;0.00;0.00;;;4.90;1.00;;;;;;6273421;22;20372;-73
2021/03/04 09:10:49;;;;;;;0.00;0.00;;;4.90;1.00;;;;;;6273998;22;20404;-70
2021/03/04 09:13:20;;;;;;;0.00;0.00;;;4.90;1.00;;;;;;6273364;22;20376;-74
2021/03/04 09:15:50;;;;;;;0.00;0.00;;;4.90;1.00;;;;;;6272708;22;20395;-70
2021/03/04 09:18:17;;;;;;;0.00;0.00;;;5.00;1.00;;;;;;6272901;22;20372;-70
2021/03/04 09:20:44;;;;;;;0.00;0.00;;;5.00;1.00;;;;;;6273271;22;20387;-68
2021/03/04 09:23:11;;;;;;;0.00;0.00;;;5.00;1.00;;;;;;6273752;22;20699;-68
2021/03/04 09:25:37;;;;;;;0.00;0.00;;;4.90;1.00;;;;;;6272730;22;20846;-69
2021/03/04 09:28:07;;;;;;;0.00;0.00;;;5.00;1.00;;;;;;6273676;22;20372;-67
2021/03/04 09:30:34;;;;;;;0.00;0.00;;;4.90;1.00;;;;;;6273254;22;20411;-66
2021/03/04 09:33:00;;;;;;;0.00;0.00;;;4.90;1.00;;;;;;6273121;22;20376;-66
2021/03/04 09:35:26;;;;;;;0.00;0.00;;;5.10;1.00;;;;;;6272802;22;20393;-69
2021/03/04 09:37:53;;;;;;;0.00;0.00;;;5.10;1.00;;;;;;6273568;22;20375;-68
2021/03/04 09:40:24;;;;;;;0.00;0.00;;;5.20;1.00;;;;;;6273811;22;20874;-68
2021/03/04 09:42:54;;;;;;;0.00;0.00;;;5.40;1.00;;;;;;6278030;22;20372;-75
2021/03/04 09:45:22;;;;;;;0.00;0.00;;;5.40;1.00;;;;;;6289666;22;20385;-76
2021/03/04 09:47:53;;;;;;;0.00;0.00;;;6.50;1.00;;;;;;6282022;22;20376;-74
2021/03/04 09:50:25;;;;;;;0.00;0.00;;;5.60;1.00;;;;;;6284368;22;20419;-75
2021/03/04 09:52:59;;;;;;;0.00;0.00;;;5.80;1.00;;;;;;6290154;22;20705;-70
2021/03/04 09:55:26;;;;;;;0.00;0.00;;;6.00;1.00;;;;;;6278022;22;20902;-68
2021/03/04 09:57:52;;;;;;;0.00;0.00;;;6.20;1.00;;;;;;6277154;22;20368;-69
2021/03/04 10:00:24;;;;;;;0.00;0.00;;;6.20;1.00;;;;;;6275447;22;20376;-68
2021/03/04 10:02:52;;;;;;;0.00;0.00;;;6.20;1.00;;;;;;6275364;22;20384;-68
2021/03/04 10:05:19;;;;;;;0.00;0.00;;;6.10;1.00;;;;;;6274806;22;20379;-73
2021/03/04 10:07:46;;;;;;;0.00;0.00;;;6.10;1.00;;;;;;6275430;22;20429;-73
2021/03/04 10:10:15;;;;;;;0.00;0.00;;;6.00;1.00;;;;;;6275081;22;20426;-73
2021/03/04 10:12:49;;;;;;;0.00;0.00;;;6.10;1.00;;;;;;6274986;22;20392;-74
2021/03/04 10:15:34;;;;;;;0.00;0.00;;;6.00;1.00;;;;;;6273675;22;20479;-75
2021/03/04 10:18:25;;;;;;;0.00;0.00;;;5.90;1.00;;;;;;6274026;22;20459;-75
2021/03/04 10:20:52;;;;;;;0.00;0.00;;;5.70;1.00;;;;;;6274455;22;20422;-74
2021/03/04 10:23:18;;;;;;;0.00;0.00;;;5.50;1.00;;;;;;6275150;22;20380;-75
2021/03/04 10:25:45;;;;;;;0.00;0.00;;;5.70;1.00;;;;;;6274584;22;20706;-74
2021/03/04 10:28:11;;;;;;;0.00;0.00;;;5.80;1.00;;;;;;6275237;22;20376;-73
2021/03/04 10:30:39;;;;;;;0.00;0.00;;;5.60;1.00;;;;;;6274919;22;20372;-73
2021/03/04 10:33:06;;;;;;;0.00;0.00;;;5.60;1.00;;;;;;6274846;22;20458;-74
2021/03/04 10:35:35;;;;;;;0.00;0.00;;;5.50;1.00;;;;;;6274116;22;20407;-77
2021/03/04 10:38:01;;;;;;;0.00;0.00;;;5.50;1.00;;;;;;6275066;22;20380;-71
2021/03/04 10:40:27;;;;;;;0.00;0.00;;;5.50;1.00;;;;;;6275221;22;20438;-69
2021/03/04 10:42:54;;;;;;;0.00;0.00;;;5.50;1.00;;;;;;6274596;22;20375;-69
2021/03/04 10:45:20;;;;;;;0.00;0.00;;;5.50;1.00;;;;;;6274310;22;20364;-68
2021/03/04 10:47:48;;;;;;;0.00;0.00;;;5.50;1.00;;;;;;6275055;22;20406;-73
2021/03/04 10:50:17;;;;;;;0.00;0.00;;;5.30;1.00;;;;;;6275532;22;20385;-73
2021/03/04 10:52:44;;;;;;;0.00;0.00;;;5.20;1.00;;;;;;6275067;22;20384;-73
2021/03/04 10:55:15;;;;;;;0.00;0.00;;;5.20;1.00;;;;;;6273874;22;20395;-73
2021/03/04 10:57:41;;;;;;;0.00;0.00;;;5.10;1.00;;;;;;6274135;22;20471;-73
2021/03/04 11:00:14;;;;;;;0.00;0.00;;;5.20;1.00;;;;;;6274853;22;20376;-72
2021/03/04 11:02:42;;;;;;;0.00;0.00;;;5.30;1.00;;;;;;6274376;22;20462;-73
2021/03/04 11:05:10;;;;;;;0.00;0.00;;;5.30;1.00;;;;;;6273975;22;20442;-70
2021/03/04 11:07:37;;;;;;;0.00;0.00;;;5.40;1.00;;;;;;6275004;22;20376;-70
2021/03/04 11:10:06;;;;;;;0.00;0.00;;;5.60;1.00;;;;;;6275754;22;20372;-70
2021/03/04 11:12:32;;;;;;;0.00;0.00;;;5.70;1.00;;;;;;6274328;22;20394;-69
2021/03/04 11:14:59;;;;;;;0.00;0.00;;;5.50;1.00;;;;;;6274334;22;20390;-70
2021/03/04 11:17:25;;;;;;;0.00;0.00;;;5.50;1.00;;;;;;6274132;22;20434;-70
2021/03/04 11:20:17;;;;;;;0.00;0.00;;;5.50;1.00;;;;;;6274327;22;20378;-74
2021/03/04 11:22:44;;;;;;;0.00;0.00;;;5.60;1.00;;;;;;6274419;22;20484;-70
2021/03/04 11:25:11;;;;;;;0.00;0.00;;;5.60;1.00;;;;;;6273297;22;20376;-70
2021/03/04 11:27:37;;;;;;;0.00;0.00;;;5.70;1.00;;;;;;6274391;22;20376;-70
2021/03/04 11:30:05;;;;;;;0.00;0.00;;;5.80;1.00;;;;;;6274428;22;20372;-70
2021/03/04 11:32:31;;;;;;;0.00;0.00;;;5.90;1.00;;;;;;6274628;22;20380;-69
2021/03/04 11:34:57;;;;;;;0.00;0.00;;;5.90;1.00;;;;;;6273676;22;20935;-74
2021/03/04 11:37:25;;;;;;;0.00;0.00;;;5.60;1.00;;;;;;6272818;22;20376;-72
2021/03/04 11:39:52;;;;;;;0.00;0.00;;;5.60;1.00;;;;;;6274013;22;20390;-72
2021/03/04 11:42:18;;;;;;;0.00;0.00;;;5.70;1.00;;;;;;6274326;22;20372;-72
2021/03/04 11:44:45;;;;;;;0.00;0.00;;;5.70;1.00;;;;;;6273820;22;20857;-72
2021/03/04 11:47:11;;;;;;;0.00;0.00;;;5.70;1.00;;;;;;6273740;22;20380;-72
2021/03/04 11:49:37;;;;;;;0.00;0.00;;;5.80;1.00;;;;;;6273854;22;20376;-71
2021/03/04 11:52:04;;;;;;;0.00;0.00;;;5.80;1.00;;;;;;6274204;22;20376;-72
2021/03/04 11:54:30;;;;;;;0.00;0.00;;;5.80;1.00;;;;;;6273323;22;20410;-73
2021/03/04 11:56:57;;;;;;;0.00;0.00;;;5.60;1.00;;;;;;6274363;22;20857;-70
2021/03/04 11:59:23;;;;;;;0.00;0.00;;;5.40;1.00;;;;;;6275196;22;20402;-70
2021/03/04 12:01:49;;;;;;;0.00;0.00;;;5.40;1.00;;;;;;6274806;22;20379;-68
2021/03/04 12:04:15;;;;;;;0.00;0.00;;;5.50;1.00;;;;;;6275069;22;20410;-70
2021/03/04 12:06:42;;;;;;;0.00;0.00;;;5.30;1.00;;;;;;6274840;22;20699;-74
2021/03/04 12:09:08;;;;;;;0.00;0.00;;;5.40;1.00;;;;;;6273643;22;20442;-69
2021/03/04 12:11:34;;;;;;;0.00;0.00;;;5.50;1.00;;;;;;6274173;22;20377;-71
2021/03/04 12:14:01;;;;;;;0.00;0.00;;;5.50;1.00;;;;;;6272995;22;20770;-71
2021/03/04 12:16:27;;;;;;;0.00;0.00;;;5.30;1.00;;;;;;6273592;22;20379;-71
2021/03/04 12:18:53;;;;;;;0.00;0.00;;;5.30;1.00;;;;;;6273232;22;20379;-71
2021/03/04 12:21:20;;;;;;;0.00;0.00;;;5.40;1.00;;;;;;6273709;22;20372;-70
2021/03/04 12:23:46;;;;;;;0.00;0.00;;;5.50;1.00;;;;;;6273561;22;20376;-70
2021/03/04 12:26:12;;;;;;;0.00;0.00;;;5.60;1.00;;;;;;6272997;22;20369;-71
2021/03/04 12:28:38;;;;;;;0.00;0.00;;;5.50;1.00;;;;;;6273594;22;20854;-70
2021/03/04 12:31:05;;;;;;;0.00;0.00;;;5.50;1.00;;;;;;6273422;22;20383;-70
2021/03/04 12:33:34;;;;;;;0.00;0.00;;;5.50;1.00;;;;;;6273304;22;20850;-74
2021/03/04 12:36:01;;;;;;;0.00;0.00;;;5.30;1.00;;;;;;6272698;22;20384;-71
2021/03/04 12:38:27;;;;;;;0.00;0.00;;;5.30;1.00;;;;;;6273882;22;20873;-72
2021/03/04 12:40:53;;;;;;;0.00;0.00;;;5.30;1.00;;;;;;6273488;22;20380;-72
2021/03/04 12:43:19;;;;;;;0.00;0.00;;;5.30;1.00;;;;;;6273457;22;20372;-72
2021/03/04 12:45:45;;;;;;;0.00;0.00;;;5.50;1.00;;;;;;6272774;22;20380;-72
2021/03/04 12:48:13;;;;;;;0.00;0.00;;;5.30;1.00;;;;;;6273290;22;20369;-72
2021/03/04 12:50:39;;;;;;;0.00;0.00;;;5.20;1.00;;;;;;6273695;22;20380;-70
2021/03/04 12:53:06;;;;;;;0.00;0.00;;;4.90;1.00;;;;;;6273077;22;20384;-70
2021/03/04 12:55:32;;;;;;;0.00;0.00;;;5.00;1.00;;;;;;6272110;22;20380;-71
2021/03/04 12:57:58;;;;;;;0.00;0.00;;;5.10;1.00;;;;;;6273925;22;20379;-70
2021/03/04 13:00:24;;;;;;;0.00;0.00;;;5.10;1.00;;;;;;6273024;22;20875;-71
2021/03/04 13:09:28;;;;;;;0.00;0.00;;;5.60;1.00;;;;;;6211853;22;21041;-69
2021/03/04 13:11:54;;;;;;;0.00;0.00;;;5.20;1.00;;;;;;6273296;22;20372;-69
2021/03/04 13:14:21;;;;;;;0.00;0.00;;;5.20;1.00;;;;;;6272929;22;20377;-69